Eagles Mere, Pennsylvania
Current Conditions -  °F | °C
As of 9:54 PM on Wednesday 22 Oct 2014 (Local Time) from KIPT Reporting Station
Overcast Overcast  
Wind Chill: 51°   Ceiling: 2100
Heat Index: 51°   Visibility: 10mi
Dew Point: 42°   Wind: 15mph
Humidity: 71%   Direction: 320°NW
Pressure: 30.01"   Gusts: 22mph
Location:  41.41°N, 76.58°W
Report Text: KIPT 230154Z 32013G19KT 10SM OVC021 11/06 A3001 RMK AO2 SLP163 T01060056
Loading
Personal Weather Stations






























Interactive Weather Map
Tropical Storm Tracking
New forecast layout! Learn more

10-Day Weather Forecast

Advertisements
Track Severe Weather on mobile